sensor_id;sensor_type;location;lat;lon;timestamp;P1;durP1;ratioP1;P2;durP2;ratioP2
46290;SDS011;32023;44.444;26.006;2022-12-16T00:02:02;147.80;;;34.03;;
46290;SDS011;32023;44.444;26.006;2022-12-16T00:04:29;171.35;;;34.28;;
46290;SDS011;32023;44.444;26.006;2022-12-16T00:06:57;119.68;;;35.10;;
46290;SDS011;32023;44.444;26.006;2022-12-16T00:09:24;125.68;;;34.42;;
46290;SDS011;32023;44.444;26.006;2022-12-16T00:12:03;110.47;;;35.38;;
46290;SDS011;32023;44.444;26.006;2022-12-16T00:14:32;100.70;;;31.73;;
46290;SDS011;32023;44.444;26.006;2022-12-16T00:16:58;100.43;;;33.25;;
46290;SDS011;32023;44.444;26.006;2022-12-16T00:19:32;119.32;;;35.15;;
46290;SDS011;32023;44.444;26.006;2022-12-16T00:22:01;125.20;;;32.97;;
46290;SDS011;32023;44.444;26.006;2022-12-16T00:24:28;118.78;;;34.67;;
46290;SDS011;32023;44.444;26.006;2022-12-16T00:26:55;100.57;;;32.10;;
46290;SDS011;32023;44.444;26.006;2022-12-16T00:29:24;104.47;;;32.67;;
46290;SDS011;32023;44.444;26.006;2022-12-16T00:31:51;123.57;;;32.97;;
46290;SDS011;32023;44.444;26.006;2022-12-16T00:34:17;100.53;;;33.95;;
46290;SDS011;32023;44.444;26.006;2022-12-16T00:36:44;114.05;;;32.33;;
46290;SDS011;32023;44.444;26.006;2022-12-16T00:39:20;109.07;;;34.72;;
46290;SDS011;32023;44.444;26.006;2022-12-16T00:42:10;99.50;;;33.33;;
46290;SDS011;32023;44.444;26.006;2022-12-16T00:44:39;172.32;;;35.15;;
46290;SDS011;32023;44.444;26.006;2022-12-16T00:47:09;158.95;;;37.58;;
46290;SDS011;32023;44.444;26.006;2022-12-16T00:49:45;162.82;;;33.03;;
46290;SDS011;32023;44.444;26.006;2022-12-16T00:52:30;101.72;;;31.48;;
46290;SDS011;32023;44.444;26.006;2022-12-16T00:55:12;107.60;;;31.23;;
46290;SDS011;32023;44.444;26.006;2022-12-16T00:57:43;107.30;;;31.73;;
46290;SDS011;32023;44.444;26.006;2022-12-16T01:00:10;134.02;;;30.77;;
46290;SDS011;32023;44.444;26.006;2022-12-16T01:02:44;103.65;;;28.88;;
46290;SDS011;32023;44.444;26.006;2022-12-16T01:05:13;88.18;;;29.33;;
46290;SDS011;32023;44.444;26.006;2022-12-16T01:07:43;115.65;;;27.15;;
46290;SDS011;32023;44.444;26.006;2022-12-16T01:10:10;157.85;;;31.90;;
46290;SDS011;32023;44.444;26.006;2022-12-16T01:12:37;93.03;;;29.77;;
46290;SDS011;32023;44.444;26.006;2022-12-16T01:15:04;108.78;;;29.08;;
46290;SDS011;32023;44.444;26.006;2022-12-16T01:17:32;147.57;;;32.85;;
46290;SDS011;32023;44.444;26.006;2022-12-16T01:19:59;132.13;;;29.35;;
46290;SDS011;32023;44.444;26.006;2022-12-16T01:22:28;127.40;;;30.10;;
46290;SDS011;32023;44.444;26.006;2022-12-16T01:24:56;142.85;;;36.40;;
46290;SDS011;32023;44.444;26.006;2022-12-16T01:27:23;135.30;;;34.60;;
46290;SDS011;32023;44.444;26.006;2022-12-16T01:29:49;121.45;;;35.58;;
46290;SDS011;32023;44.444;26.006;2022-12-16T01:32:16;142.18;;;39.35;;
46290;SDS011;32023;44.444;26.006;2022-12-16T01:34:51;122.80;;;37.78;;
46290;SDS011;32023;44.444;26.006;2022-12-16T01:37:18;117.57;;;35.53;;
46290;SDS011;32023;44.444;26.006;2022-12-16T01:39:48;114.20;;;34.50;;
46290;SDS011;32023;44.444;26.006;2022-12-16T01:44:52;110.85;;;34.90;;
46290;SDS011;32023;44.444;26.006;2022-12-16T01:47:24;99.03;;;33.15;;
46290;SDS011;32023;44.444;26.006;2022-12-16T01:52:25;89.82;;;29.73;;
46290;SDS011;32023;44.444;26.006;2022-12-16T01:55:01;88.40;;;31.30;;
46290;SDS011;32023;44.444;26.006;2022-12-16T01:57:41;93.88;;;31.42;;
46290;SDS011;32023;44.444;26.006;2022-12-16T02:00:12;80.40;;;28.88;;
46290;SDS011;32023;44.444;26.006;2022-12-16T02:02:40;75.93;;;26.58;;
46290;SDS011;32023;44.444;26.006;2022-12-16T02:05:09;67.30;;;26.73;;
46290;SDS011;32023;44.444;26.006;2022-12-16T02:08:00;70.43;;;26.05;;
46290;SDS011;32023;44.444;26.006;2022-12-16T02:35:14;87.22;;;26.98;;
46290;SDS011;32023;44.444;26.006;2022-12-16T02:37:49;73.20;;;24.60;;
46290;SDS011;32023;44.444;26.006;2022-12-16T02:43:55;84.68;;;26.20;;
46290;SDS011;32023;44.444;26.006;2022-12-16T02:46:28;77.50;;;26.05;;
46290;SDS011;32023;44.444;26.006;2022-12-16T02:49:08;83.85;;;26.48;;
46290;SDS011;32023;44.444;26.006;2022-12-16T02:51:37;103.63;;;27.48;;
46290;SDS011;32023;44.444;26.006;2022-12-16T02:54:07;78.03;;;25.60;;
46290;SDS011;32023;44.444;26.006;2022-12-16T03:03:07;70.53;;;22.27;;
46290;SDS011;32023;44.444;26.006;2022-12-16T03:05:46;59.75;;;21.45;;
46290;SDS011;32023;44.444;26.006;2022-12-16T03:08:22;62.30;;;22.20;;
46290;SDS011;32023;44.444;26.006;2022-12-16T03:11:02;60.70;;;21.10;;
46290;SDS011;32023;44.444;26.006;2022-12-16T03:13:39;61.67;;;20.67;;
46290;SDS011;32023;44.444;26.006;2022-12-16T03:16:09;57.50;;;19.80;;
46290;SDS011;32023;44.444;26.006;2022-12-16T03:19:00;44.65;;;17.13;;
46290;SDS011;32023;44.444;26.006;2022-12-16T03:21:29;42.13;;;17.35;;
46290;SDS011;32023;44.444;26.006;2022-12-16T03:24:03;48.30;;;16.95;;
46290;SDS011;32023;44.444;26.006;2022-12-16T03:26:35;46.30;;;17.67;;
46290;SDS011;32023;44.444;26.006;2022-12-16T03:31:51;44.60;;;18.50;;
46290;SDS011;32023;44.444;26.006;2022-12-16T03:34:47;50.78;;;19.20;;
46290;SDS011;32023;44.444;26.006;2022-12-16T03:37:20;49.08;;;19.25;;
46290;SDS011;32023;44.444;26.006;2022-12-16T03:39:50;59.15;;;21.02;;
46290;SDS011;32023;44.444;26.006;2022-12-16T03:42:20;55.75;;;19.80;;
46290;SDS011;32023;44.444;26.006;2022-12-16T03:44:48;57.58;;;20.40;;
46290;SDS011;32023;44.444;26.006;2022-12-16T03:47:15;57.15;;;20.20;;
46290;SDS011;32023;44.444;26.006;2022-12-16T03:49:41;57.92;;;20.05;;
46290;SDS011;32023;44.444;26.006;2022-12-16T03:52:09;65.80;;;20.77;;
46290;SDS011;32023;44.444;26.006;2022-12-16T03:54:36;68.03;;;21.27;;
46290;SDS011;32023;44.444;26.006;2022-12-16T03:57:05;55.65;;;20.77;;
46290;SDS011;32023;44.444;26.006;2022-12-16T03:59:32;51.30;;;19.40;;
46290;SDS011;32023;44.444;26.006;2022-12-16T04:01:58;50.28;;;18.77;;
46290;SDS011;32023;44.444;26.006;2022-12-16T04:04:25;48.88;;;18.20;;
46290;SDS011;32023;44.444;26.006;2022-12-16T04:06:52;54.75;;;19.05;;
46290;SDS011;32023;44.444;26.006;2022-12-16T04:09:37;52.28;;;17.63;;
46290;SDS011;32023;44.444;26.006;2022-12-16T04:12:12;50.13;;;19.27;;
46290;SDS011;32023;44.444;26.006;2022-12-16T04:15:14;51.47;;;17.63;;
46290;SDS011;32023;44.444;26.006;2022-12-16T04:17:46;55.47;;;19.02;;
46290;SDS011;32023;44.444;26.006;2022-12-16T04:20:31;51.15;;;18.00;;
46290;SDS011;32023;44.444;26.006;2022-12-16T04:23:19;55.47;;;20.02;;
46290;SDS011;32023;44.444;26.006;2022-12-16T04:26:05;52.63;;;20.77;;
46290;SDS011;32023;44.444;26.006;2022-12-16T04:28:37;54.03;;;19.13;;
46290;SDS011;32023;44.444;26.006;2022-12-16T04:31:10;54.58;;;20.38;;
46290;SDS011;32023;44.444;26.006;2022-12-16T04:33:37;65.60;;;20.88;;
46290;SDS011;32023;44.444;26.006;2022-12-16T04:36:23;67.22;;;21.33;;
46290;SDS011;32023;44.444;26.006;2022-12-16T04:39:08;49.22;;;19.00;;
46290;SDS011;32023;44.444;26.006;2022-12-16T04:42:04;54.50;;;19.00;;
46290;SDS011;32023;44.444;26.006;2022-12-16T04:44:52;50.40;;;19.65;;
46290;SDS011;32023;44.444;26.006;2022-12-16T04:47:42;43.25;;;17.85;;
46290;SDS011;32023;44.444;26.006;2022-12-16T04:50:27;42.15;;;16.88;;
46290;SDS011;32023;44.444;26.006;2022-12-16T04:53:12;36.95;;;12.65;;
46290;SDS011;32023;44.444;26.006;2022-12-16T04:55:57;59.58;;;17.67;;
46290;SDS011;32023;44.444;26.006;2022-12-16T04:58:41;40.10;;;16.85;;
46290;SDS011;32023;44.444;26.006;2022-12-16T05:01:26;44.15;;;18.77;;
46290;SDS011;32023;44.444;26.006;2022-12-16T05:04:16;43.53;;;17.67;;
46290;SDS011;32023;44.444;26.006;2022-12-16T05:07:01;49.45;;;18.42;;
46290;SDS011;32023;44.444;26.006;2022-12-16T05:09:48;56.22;;;18.92;;
46290;SDS011;32023;44.444;26.006;2022-12-16T05:12:33;55.90;;;19.95;;
46290;SDS011;32023;44.444;26.006;2022-12-16T05:15:21;93.00;;;21.92;;
46290;SDS011;32023;44.444;26.006;2022-12-16T05:18:09;63.08;;;20.83;;
46290;SDS011;32023;44.444;26.006;2022-12-16T05:20:58;51.65;;;19.33;;
46290;SDS011;32023;44.444;26.006;2022-12-16T05:23:45;58.13;;;20.65;;
46290;SDS011;32023;44.444;26.006;2022-12-16T05:26:35;63.35;;;21.88;;
46290;SDS011;32023;44.444;26.006;2022-12-16T05:29:37;52.13;;;20.10;;
46290;SDS011;32023;44.444;26.006;2022-12-16T05:32:22;57.28;;;20.73;;
46290;SDS011;32023;44.444;26.006;2022-12-16T05:35:16;61.30;;;20.20;;
46290;SDS011;32023;44.444;26.006;2022-12-16T05:38:06;46.38;;;18.77;;
46290;SDS011;32023;44.444;26.006;2022-12-16T05:41:02;55.97;;;20.83;;
46290;SDS011;32023;44.444;26.006;2022-12-16T05:43:47;67.90;;;20.92;;
46290;SDS011;32023;44.444;26.006;2022-12-16T05:46:32;62.13;;;22.27;;
46290;SDS011;32023;44.444;26.006;2022-12-16T05:49:17;59.38;;;22.02;;
46290;SDS011;32023;44.444;26.006;2022-12-16T05:52:11;58.85;;;22.50;;
46290;SDS011;32023;44.444;26.006;2022-12-16T05:55:06;54.88;;;19.33;;
46290;SDS011;32023;44.444;26.006;2022-12-16T05:57:56;56.80;;;21.20;;
46290;SDS011;32023;44.444;26.006;2022-12-16T06:00:50;49.38;;;20.85;;
46290;SDS011;32023;44.444;26.006;2022-12-16T06:03:37;58.63;;;22.05;;
46290;SDS011;32023;44.444;26.006;2022-12-16T06:09:30;49.63;;;19.67;;
46290;SDS011;32023;44.444;26.006;2022-12-16T06:12:15;45.13;;;17.50;;
46290;SDS011;32023;44.444;26.006;2022-12-16T06:15:09;49.70;;;18.08;;
46290;SDS011;32023;44.444;26.006;2022-12-16T06:18:02;42.63;;;17.95;;
46290;SDS011;32023;44.444;26.006;2022-12-16T06:20:50;43.60;;;17.73;;
46290;SDS011;32023;44.444;26.006;2022-12-16T06:23:48;43.25;;;17.17;;
46290;SDS011;32023;44.444;26.006;2022-12-16T06:26:49;53.13;;;19.33;;
46290;SDS011;32023;44.444;26.006;2022-12-16T06:29:41;37.90;;;18.05;;
46290;SDS011;32023;44.444;26.006;2022-12-16T06:32:34;38.00;;;16.00;;
46290;SDS011;32023;44.444;26.006;2022-12-16T06:35:18;37.90;;;16.80;;
46290;SDS011;32023;44.444;26.006;2022-12-16T06:38:16;44.42;;;17.02;;
46290;SDS011;32023;44.444;26.006;2022-12-16T06:41:02;47.42;;;18.15;;
46290;SDS011;32023;44.444;26.006;2022-12-16T06:43:56;54.25;;;20.30;;
46290;SDS011;32023;44.444;26.006;2022-12-16T07:00:56;42.10;;;17.77;;
46290;SDS011;32023;44.444;26.006;2022-12-16T07:06:50;42.15;;;18.00;;
46290;SDS011;32023;44.444;26.006;2022-12-16T07:09:35;43.15;;;19.98;;
46290;SDS011;32023;44.444;26.006;2022-12-16T07:12:23;38.45;;;18.23;;
46290;SDS011;32023;44.444;26.006;2022-12-16T07:15:18;37.92;;;18.67;;
46290;SDS011;32023;44.444;26.006;2022-12-16T07:18:03;43.90;;;19.13;;
46290;SDS011;32023;44.444;26.006;2022-12-16T07:20:50;45.85;;;19.02;;
46290;SDS011;32023;44.444;26.006;2022-12-16T07:23:43;38.42;;;17.73;;
46290;SDS011;32023;44.444;26.006;2022-12-16T07:26:28;38.15;;;18.65;;
46290;SDS011;32023;44.444;26.006;2022-12-16T07:29:16;36.88;;;18.50;;
46290;SDS011;32023;44.444;26.006;2022-12-16T07:32:00;39.03;;;17.58;;
46290;SDS011;32023;44.444;26.006;2022-12-16T07:34:47;37.78;;;17.30;;
46290;SDS011;32023;44.444;26.006;2022-12-16T07:37:32;34.17;;;17.17;;
46290;SDS011;32023;44.444;26.006;2022-12-16T07:40:17;34.20;;;16.98;;
46290;SDS011;32023;44.444;26.006;2022-12-16T07:43:02;40.42;;;18.02;;
46290;SDS011;32023;44.444;26.006;2022-12-16T07:45:50;31.65;;;17.88;;
46290;SDS011;32023;44.444;26.006;2022-12-16T07:48:46;43.28;;;19.73;;
46290;SDS011;32023;44.444;26.006;2022-12-16T07:54:21;33.00;;;17.05;;
46290;SDS011;32023;44.444;26.006;2022-12-16T07:57:06;33.97;;;17.35;;
46290;SDS011;32023;44.444;26.006;2022-12-16T07:59:51;32.05;;;16.60;;
46290;SDS011;32023;44.444;26.006;2022-12-16T08:02:43;30.85;;;16.75;;
46290;SDS011;32023;44.444;26.006;2022-12-16T08:08:44;27.90;;;15.68;;
46290;SDS011;32023;44.444;26.006;2022-12-16T08:11:32;35.65;;;16.98;;
46290;SDS011;32023;44.444;26.006;2022-12-16T08:14:20;29.45;;;16.77;;
46290;SDS011;32023;44.444;26.006;2022-12-16T08:17:13;32.95;;;17.92;;
46290;SDS011;32023;44.444;26.006;2022-12-16T08:19:58;28.25;;;16.55;;
46290;SDS011;32023;44.444;26.006;2022-12-16T08:22:50;35.42;;;18.80;;
46290;SDS011;32023;44.444;26.006;2022-12-16T08:25:47;36.70;;;18.98;;
46290;SDS011;32023;44.444;26.006;2022-12-16T08:31:31;29.38;;;16.67;;
46290;SDS011;32023;44.444;26.006;2022-12-16T08:34:16;30.15;;;16.85;;
46290;SDS011;32023;44.444;26.006;2022-12-16T08:37:05;28.92;;;16.63;;
46290;SDS011;32023;44.444;26.006;2022-12-16T08:39:57;29.58;;;16.15;;
46290;SDS011;32023;44.444;26.006;2022-12-16T08:42:49;31.58;;;15.40;;
46290;SDS011;32023;44.444;26.006;2022-12-16T08:45:36;27.80;;;15.82;;
46290;SDS011;32023;44.444;26.006;2022-12-16T08:48:27;30.27;;;16.83;;
46290;SDS011;32023;44.444;26.006;2022-12-16T08:51:12;31.05;;;17.73;;
46290;SDS011;32023;44.444;26.006;2022-12-16T08:53:59;28.75;;;16.40;;
46290;SDS011;32023;44.444;26.006;2022-12-16T08:59:56;25.65;;;15.07;;
46290;SDS011;32023;44.444;26.006;2022-12-16T09:02:44;26.40;;;15.38;;
46290;SDS011;32023;44.444;26.006;2022-12-16T09:05:56;32.95;;;16.67;;
46290;SDS011;32023;44.444;26.006;2022-12-16T09:08:47;30.73;;;16.25;;
46290;SDS011;32023;44.444;26.006;2022-12-16T09:11:35;26.02;;;16.02;;
46290;SDS011;32023;44.444;26.006;2022-12-16T09:14:32;28.98;;;17.13;;
46290;SDS011;32023;44.444;26.006;2022-12-16T09:17:20;27.60;;;16.67;;
46290;SDS011;32023;44.444;26.006;2022-12-16T09:20:08;30.23;;;16.30;;
46290;SDS011;32023;44.444;26.006;2022-12-16T09:23:00;33.70;;;19.08;;
46290;SDS011;32023;44.444;26.006;2022-12-16T09:25:52;31.38;;;17.35;;
46290;SDS011;32023;44.444;26.006;2022-12-16T09:28:39;29.45;;;17.00;;
46290;SDS011;32023;44.444;26.006;2022-12-16T09:31:27;32.92;;;18.58;;
46290;SDS011;32023;44.444;26.006;2022-12-16T09:37:04;31.90;;;17.13;;
46290;SDS011;32023;44.444;26.006;2022-12-16T09:39:49;32.53;;;17.73;;
46290;SDS011;32023;44.444;26.006;2022-12-16T09:56:15;32.05;;;17.95;;
46290;SDS011;32023;44.444;26.006;2022-12-16T10:05:31;29.08;;;17.10;;
46290;SDS011;32023;44.444;26.006;2022-12-16T10:31:23;31.45;;;16.88;;
46290;SDS011;32023;44.444;26.006;2022-12-16T10:34:12;32.40;;;18.73;;
46290;SDS011;32023;44.444;26.006;2022-12-16T10:40:32;26.58;;;16.00;;
46290;SDS011;32023;44.444;26.006;2022-12-16T10:43:30;23.45;;;16.30;;
46290;SDS011;32023;44.444;26.006;2022-12-16T10:46:38;27.67;;;16.40;;
46290;SDS011;32023;44.444;26.006;2022-12-16T10:49:39;28.27;;;17.40;;
46290;SDS011;32023;44.444;26.006;2022-12-16T10:52:31;25.58;;;16.55;;
46290;SDS011;32023;44.444;26.006;2022-12-16T10:58:41;27.50;;;17.10;;
46290;SDS011;32023;44.444;26.006;2022-12-16T11:01:37;26.25;;;18.90;;
46290;SDS011;32023;44.444;26.006;2022-12-16T11:04:32;30.42;;;17.23;;
46290;SDS011;32023;44.444;26.006;2022-12-16T11:16:36;24.58;;;18.17;;
46290;SDS011;32023;44.444;26.006;2022-12-16T11:19:27;25.58;;;18.60;;
46290;SDS011;32023;44.444;26.006;2022-12-16T11:22:17;24.40;;;17.48;;
46290;SDS011;32023;44.444;26.006;2022-12-16T11:25:18;26.63;;;17.55;;
46290;SDS011;32023;44.444;26.006;2022-12-16T11:28:08;27.42;;;18.15;;
46290;SDS011;32023;44.444;26.006;2022-12-16T11:31:00;24.95;;;18.73;;
46290;SDS011;32023;44.444;26.006;2022-12-16T11:33:57;24.13;;;17.63;;
46290;SDS011;32023;44.444;26.006;2022-12-16T11:36:55;26.27;;;18.70;;
46290;SDS011;32023;44.444;26.006;2022-12-16T11:42:47;23.77;;;18.20;;
46290;SDS011;32023;44.444;26.006;2022-12-16T11:45:40;25.98;;;19.38;;
46290;SDS011;32023;44.444;26.006;2022-12-16T11:48:32;25.30;;;18.90;;
46290;SDS011;32023;44.444;26.006;2022-12-16T11:51:27;29.08;;;20.48;;
46290;SDS011;32023;44.444;26.006;2022-12-16T11:54:26;33.38;;;21.08;;
46290;SDS011;32023;44.444;26.006;2022-12-16T11:57:18;30.70;;;20.02;;
46290;SDS011;32023;44.444;26.006;2022-12-16T12:00:06;30.77;;;19.35;;
46290;SDS011;32023;44.444;26.006;2022-12-16T12:06:19;32.45;;;19.90;;
46290;SDS011;32023;44.444;26.006;2022-12-16T12:09:21;27.80;;;20.70;;
46290;SDS011;32023;44.444;26.006;2022-12-16T12:12:13;32.83;;;21.35;;
46290;SDS011;32023;44.444;26.006;2022-12-16T12:15:26;31.48;;;22.65;;
46290;SDS011;32023;44.444;26.006;2022-12-16T12:18:39;29.92;;;21.50;;
46290;SDS011;32023;44.444;26.006;2022-12-16T12:21:40;48.90;;;23.60;;
46290;SDS011;32023;44.444;26.006;2022-12-16T12:30:29;41.72;;;25.98;;
46290;SDS011;32023;44.444;26.006;2022-12-16T12:36:31;44.50;;;28.10;;
46290;SDS011;32023;44.444;26.006;2022-12-16T12:39:42;45.72;;;27.73;;
46290;SDS011;32023;44.444;26.006;2022-12-16T12:42:51;44.67;;;28.20;;
46290;SDS011;32023;44.444;26.006;2022-12-16T12:54:50;51.38;;;29.55;;
46290;SDS011;32023;44.444;26.006;2022-12-16T12:57:39;50.13;;;27.85;;
46290;SDS011;32023;44.444;26.006;2022-12-16T13:00:27;51.97;;;29.13;;
46290;SDS011;32023;44.444;26.006;2022-12-16T13:06:13;52.60;;;29.67;;
46290;SDS011;32023;44.444;26.006;2022-12-16T13:08:59;49.28;;;28.67;;
46290;SDS011;32023;44.444;26.006;2022-12-16T13:14:51;58.65;;;30.25;;
46290;SDS011;32023;44.444;26.006;2022-12-16T13:20:42;59.63;;;30.50;;
46290;SDS011;32023;44.444;26.006;2022-12-16T13:23:40;52.35;;;30.55;;
46290;SDS011;32023;44.444;26.006;2022-12-16T13:26:27;57.15;;;32.78;;
46290;SDS011;32023;44.444;26.006;2022-12-16T13:35:18;57.53;;;34.08;;
46290;SDS011;32023;44.444;26.006;2022-12-16T13:38:19;61.50;;;34.53;;
46290;SDS011;32023;44.444;26.006;2022-12-16T13:50:39;62.42;;;34.95;;
46290;SDS011;32023;44.444;26.006;2022-12-16T13:53:44;57.23;;;33.97;;
46290;SDS011;32023;44.444;26.006;2022-12-16T13:56:41;62.22;;;35.03;;
46290;SDS011;32023;44.444;26.006;2022-12-16T13:59:31;69.65;;;35.38;;
46290;SDS011;32023;44.444;26.006;2022-12-16T14:02:23;66.47;;;36.88;;
46290;SDS011;32023;44.444;26.006;2022-12-16T14:05:21;62.70;;;36.08;;
46290;SDS011;32023;44.444;26.006;2022-12-16T14:08:19;66.28;;;35.38;;
46290;SDS011;32023;44.444;26.006;2022-12-16T14:11:12;70.70;;;39.53;;
46290;SDS011;32023;44.444;26.006;2022-12-16T14:14:07;84.47;;;44.67;;
46290;SDS011;32023;44.444;26.006;2022-12-16T14:17:09;87.15;;;46.83;;
46290;SDS011;32023;44.444;26.006;2022-12-16T14:26:21;84.38;;;44.05;;
46290;SDS011;32023;44.444;26.006;2022-12-16T14:29:26;79.15;;;42.92;;
46290;SDS011;32023;44.444;26.006;2022-12-16T14:32:29;74.38;;;39.53;;
46290;SDS011;32023;44.444;26.006;2022-12-16T14:35:25;74.05;;;38.78;;
46290;SDS011;32023;44.444;26.006;2022-12-16T14:41:04;77.60;;;40.42;;
46290;SDS011;32023;44.444;26.006;2022-12-16T14:43:52;80.03;;;41.45;;
46290;SDS011;32023;44.444;26.006;2022-12-16T14:46:43;79.05;;;39.83;;
46290;SDS011;32023;44.444;26.006;2022-12-16T14:49:54;85.80;;;43.30;;
46290;SDS011;32023;44.444;26.006;2022-12-16T14:55:33;84.95;;;43.22;;
46290;SDS011;32023;44.444;26.006;2022-12-16T14:58:37;89.03;;;41.00;;
46290;SDS011;32023;44.444;26.006;2022-12-16T15:01:39;78.68;;;39.10;;
46290;SDS011;32023;44.444;26.006;2022-12-16T15:10:03;77.80;;;36.10;;
46290;SDS011;32023;44.444;26.006;2022-12-16T15:13:16;74.68;;;36.80;;
46290;SDS011;32023;44.444;26.006;2022-12-16T15:19:18;82.60;;;40.30;;
46290;SDS011;32023;44.444;26.006;2022-12-16T15:22:11;80.93;;;40.17;;
46290;SDS011;32023;44.444;26.006;2022-12-16T15:24:58;93.28;;;41.83;;
46290;SDS011;32023;44.444;26.006;2022-12-16T15:27:51;85.70;;;42.28;;
46290;SDS011;32023;44.444;26.006;2022-12-16T15:30:41;96.80;;;43.95;;
46290;SDS011;32023;44.444;26.006;2022-12-16T15:33:28;87.97;;;42.85;;
46290;SDS011;32023;44.444;26.006;2022-12-16T15:36:27;91.10;;;43.53;;
46290;SDS011;32023;44.444;26.006;2022-12-16T15:39:33;95.80;;;43.83;;
46290;SDS011;32023;44.444;26.006;2022-12-16T15:42:32;100.57;;;44.35;;
46290;SDS011;32023;44.444;26.006;2022-12-16T15:51:28;96.10;;;45.43;;
46290;SDS011;32023;44.444;26.006;2022-12-16T15:54:18;99.47;;;45.20;;
46290;SDS011;32023;44.444;26.006;2022-12-16T16:00:35;102.13;;;43.08;;
46290;SDS011;32023;44.444;26.006;2022-12-16T16:03:30;94.60;;;42.45;;
46290;SDS011;32023;44.444;26.006;2022-12-16T16:06:25;102.47;;;44.22;;
46290;SDS011;32023;44.444;26.006;2022-12-16T16:12:13;100.03;;;42.08;;
46290;SDS011;32023;44.444;26.006;2022-12-16T16:14:59;96.50;;;42.13;;
46290;SDS011;32023;44.444;26.006;2022-12-16T16:17:46;116.05;;;48.95;;
46290;SDS011;32023;44.444;26.006;2022-12-16T16:20:35;96.93;;;43.42;;
46290;SDS011;32023;44.444;26.006;2022-12-16T16:23:20;115.63;;;48.08;;
46290;SDS011;32023;44.444;26.006;2022-12-16T16:26:12;116.90;;;45.42;;
46290;SDS011;32023;44.444;26.006;2022-12-16T16:29:09;112.88;;;47.10;;
46290;SDS011;32023;44.444;26.006;2022-12-16T16:35:04;94.63;;;44.78;;
46290;SDS011;32023;44.444;26.006;2022-12-16T16:37:49;93.70;;;43.88;;
46290;SDS011;32023;44.444;26.006;2022-12-16T16:40:37;85.13;;;41.58;;
46290;SDS011;32023;44.444;26.006;2022-12-16T16:43:27;91.05;;;41.03;;
46290;SDS011;32023;44.444;26.006;2022-12-16T16:49:03;102.63;;;43.28;;
46290;SDS011;32023;44.444;26.006;2022-12-16T16:52:22;97.57;;;41.85;;
46290;SDS011;32023;44.444;26.006;2022-12-16T16:58:37;102.47;;;44.53;;
46290;SDS011;32023;44.444;26.006;2022-12-16T17:01:30;101.53;;;47.47;;
46290;SDS011;32023;44.444;26.006;2022-12-16T17:07:38;108.10;;;48.05;;
46290;SDS011;32023;44.444;26.006;2022-12-16T17:10:23;108.03;;;46.10;;
46290;SDS011;32023;44.444;26.006;2022-12-16T17:29:52;107.72;;;43.72;;
46290;SDS011;32023;44.444;26.006;2022-12-16T17:32:45;108.78;;;46.28;;
46290;SDS011;32023;44.444;26.006;2022-12-16T17:35:49;108.50;;;46.45;;
46290;SDS011;32023;44.444;26.006;2022-12-16T17:38:40;108.13;;;47.90;;
46290;SDS011;32023;44.444;26.006;2022-12-16T17:41:34;108.35;;;45.08;;
46290;SDS011;32023;44.444;26.006;2022-12-16T17:44:39;112.57;;;47.58;;
46290;SDS011;32023;44.444;26.006;2022-12-16T17:53:06;126.53;;;51.65;;
46290;SDS011;32023;44.444;26.006;2022-12-16T17:56:01;121.07;;;49.30;;
46290;SDS011;32023;44.444;26.006;2022-12-16T17:58:47;116.82;;;48.28;;
46290;SDS011;32023;44.444;26.006;2022-12-16T18:01:35;108.68;;;48.50;;
46290;SDS011;32023;44.444;26.006;2022-12-16T18:04:20;102.35;;;46.03;;
46290;SDS011;32023;44.444;26.006;2022-12-16T18:07:05;112.80;;;48.58;;
46290;SDS011;32023;44.444;26.006;2022-12-16T18:09:50;138.43;;;53.60;;
46290;SDS011;32023;44.444;26.006;2022-12-16T18:12:35;137.45;;;52.67;;
46290;SDS011;32023;44.444;26.006;2022-12-16T18:15:20;120.38;;;46.47;;
46290;SDS011;32023;44.444;26.006;2022-12-16T18:18:05;114.32;;;43.47;;
46290;SDS011;32023;44.444;26.006;2022-12-16T18:23:55;79.53;;;35.67;;
46290;SDS011;32023;44.444;26.006;2022-12-16T18:26:47;97.70;;;38.90;;
46290;SDS011;32023;44.444;26.006;2022-12-16T18:29:32;82.25;;;37.50;;
46290;SDS011;32023;44.444;26.006;2022-12-16T18:32:20;99.38;;;42.58;;
46290;SDS011;32023;44.444;26.006;2022-12-16T18:35:04;97.22;;;43.85;;
46290;SDS011;32023;44.444;26.006;2022-12-16T18:37:54;87.03;;;37.03;;
46290;SDS011;32023;44.444;26.006;2022-12-16T18:40:45;93.88;;;40.47;;
46290;SDS011;32023;44.444;26.006;2022-12-16T18:43:48;86.60;;;39.83;;
46290;SDS011;32023;44.444;26.006;2022-12-16T18:46:34;95.00;;;41.80;;
46290;SDS011;32023;44.444;26.006;2022-12-16T18:49:19;91.40;;;40.88;;
46290;SDS011;32023;44.444;26.006;2022-12-16T18:52:04;95.68;;;39.50;;
46290;SDS011;32023;44.444;26.006;2022-12-16T18:54:51;105.22;;;43.20;;
46290;SDS011;32023;44.444;26.006;2022-12-16T18:57:36;96.53;;;43.47;;
46290;SDS011;32023;44.444;26.006;2022-12-16T19:00:21;106.45;;;43.83;;
46290;SDS011;32023;44.444;26.006;2022-12-16T19:03:08;95.50;;;43.10;;
46290;SDS011;32023;44.444;26.006;2022-12-16T19:05:55;97.75;;;43.75;;
46290;SDS011;32023;44.444;26.006;2022-12-16T19:08:40;98.45;;;44.35;;
46290;SDS011;32023;44.444;26.006;2022-12-16T19:11:31;97.88;;;41.42;;
46290;SDS011;32023;44.444;26.006;2022-12-16T19:14:18;99.68;;;43.65;;
46290;SDS011;32023;44.444;26.006;2022-12-16T19:17:03;101.75;;;42.13;;
46290;SDS011;32023;44.444;26.006;2022-12-16T19:19:51;102.65;;;48.40;;
46290;SDS011;32023;44.444;26.006;2022-12-16T19:22:41;107.00;;;46.10;;
46290;SDS011;32023;44.444;26.006;2022-12-16T19:25:28;107.28;;;46.95;;
46290;SDS011;32023;44.444;26.006;2022-12-16T19:28:19;112.70;;;48.42;;
46290;SDS011;32023;44.444;26.006;2022-12-16T19:31:05;105.65;;;45.75;;
46290;SDS011;32023;44.444;26.006;2022-12-16T19:33:53;106.07;;;46.28;;
46290;SDS011;32023;44.444;26.006;2022-12-16T19:36:41;100.72;;;43.50;;
46290;SDS011;32023;44.444;26.006;2022-12-16T19:39:29;91.22;;;42.88;;
46290;SDS011;32023;44.444;26.006;2022-12-16T19:42:14;93.55;;;42.13;;
46290;SDS011;32023;44.444;26.006;2022-12-16T19:45:03;90.90;;;41.92;;
46290;SDS011;32023;44.444;26.006;2022-12-16T19:47:48;85.80;;;39.05;;
46290;SDS011;32023;44.444;26.006;2022-12-16T19:50:33;83.25;;;38.35;;
46290;SDS011;32023;44.444;26.006;2022-12-16T19:56:24;83.93;;;39.25;;
46290;SDS011;32023;44.444;26.006;2022-12-16T19:59:11;81.28;;;37.03;;
46290;SDS011;32023;44.444;26.006;2022-12-16T20:02:01;80.07;;;36.92;;
46290;SDS011;32023;44.444;26.006;2022-12-16T20:04:46;79.00;;;37.53;;
46290;SDS011;32023;44.444;26.006;2022-12-16T20:07:33;78.63;;;36.50;;
46290;SDS011;32023;44.444;26.006;2022-12-16T20:10:17;74.78;;;35.08;;
46290;SDS011;32023;44.444;26.006;2022-12-16T20:13:08;76.38;;;36.75;;
46290;SDS011;32023;44.444;26.006;2022-12-16T20:15:59;76.40;;;36.55;;